Time;durP1;ratioP1;P1;durP2;ratioP2;P2;SDS_P1;SDS_P2;PMS_P1;PMS_P2;Temp;Humidity;BMP_temperature;BMP_pressure;BME280_temperature;BME280_humidity;BME280_pressure;Samples;Min_cycle;Max_cycle;Signal;HPM_P1;HPM_P2
2022/11/23 00:01:59;;;;;;;8.93;4.38;;;10.40;99.90;;;;;;4989929;28;20390;-77
2022/11/23 00:04:25;;;;;;;11.57;5.40;;;10.40;99.90;;;;;;4987468;28;20019;-78
2022/11/23 00:06:51;;;;;;;9.73;5.32;;;10.30;99.90;;;;;;4992887;28;20040;-71
2022/11/23 00:09:18;;;;;;;10.27;5.80;;;10.30;99.90;;;;;;4995206;28;20023;-77
2022/11/23 00:11:44;;;;;;;11.50;5.30;;;10.30;99.90;;;;;;4994575;28;20031;-78
2022/11/23 00:14:10;;;;;;;13.55;5.60;;;10.30;99.90;;;;;;4995264;28;20037;-70
2022/11/23 00:16:36;;;;;;;11.63;5.05;;;10.30;99.90;;;;;;4995567;28;20162;-78
2022/11/23 00:19:02;;;;;;;10.85;5.00;;;10.30;99.90;;;;;;4994638;28;20088;-71
2022/11/23 00:21:31;;;;;;;11.45;6.00;;;10.20;99.90;;;;;;4994297;28;20034;-74
2022/11/23 00:23:57;;;;;;;13.95;6.05;;;10.20;99.90;;;;;;4988432;28;20023;-74
2022/11/23 00:26:23;;;;;;;11.25;5.90;;;10.20;99.90;;;;;;4984008;28;20145;-72
2022/11/23 00:28:49;;;;;;;12.93;5.22;;;10.20;99.90;;;;;;4994107;28;20117;-76
2022/11/23 00:31:18;;;;;;;9.98;4.63;;;10.10;99.90;;;;;;4982706;28;20027;-71
2022/11/23 00:33:55;;;;;;;9.05;4.82;;;10.10;99.90;;;;;;4991535;28;20087;-69
2022/11/23 00:36:22;;;;;;;8.48;4.30;;;10.10;99.90;;;;;;4994255;28;20477;-72
2022/11/23 00:38:50;;;;;;;7.45;3.55;;;10.10;99.90;;;;;;4974524;28;20035;-72
2022/11/23 00:41:19;;;;;;;6.68;3.97;;;10.10;99.90;;;;;;4990234;28;20030;-69
2022/11/23 00:43:45;;;;;;;11.38;4.32;;;10.20;99.90;;;;;;4993943;28;20018;-70
2022/11/23 00:46:15;;;;;;;12.70;4.18;;;10.20;99.90;;;;;;4994310;28;20033;-77
2022/11/23 00:48:42;;;;;;;9.32;4.43;;;10.20;99.90;;;;;;4994438;28;20053;-74
2022/11/23 00:51:11;;;;;;;7.57;3.90;;;10.20;99.90;;;;;;4980652;28;20026;-77
2022/11/23 00:53:38;;;;;;;12.52;5.57;;;10.20;99.90;;;;;;4992293;28;20089;-70
2022/11/23 00:56:05;;;;;;;7.53;3.40;;;10.20;99.90;;;;;;4994915;28;20113;-71
2022/11/23 00:58:31;;;;;;;8.77;4.50;;;10.20;99.90;;;;;;4992852;28;20030;-72
2022/11/23 01:01:07;;;;;;;12.93;5.07;;;10.20;99.90;;;;;;4980389;28;20034;-69
2022/11/23 01:03:35;;;;;;;11.07;4.70;;;10.10;99.90;;;;;;4982135;28;20106;-73
2022/11/23 01:06:07;;;;;;;9.35;4.43;;;10.10;99.90;;;;;;4992165;28;20077;-69
2022/11/23 01:08:33;;;;;;;10.38;5.18;;;10.10;99.90;;;;;;4988317;28;20062;-76
2022/11/23 01:11:05;;;;;;;10.55;4.93;;;10.10;99.90;;;;;;4988990;28;20030;-74
2022/11/23 01:13:35;;;;;;;14.48;4.72;;;10.10;99.90;;;;;;4984025;28;20034;-72
2022/11/23 01:16:01;;;;;;;11.35;4.97;;;10.10;99.90;;;;;;4993683;28;20036;-70
2022/11/23 01:18:27;;;;;;;9.75;4.10;;;10.10;99.90;;;;;;4990842;28;20022;-70
2022/11/23 01:20:56;;;;;;;12.57;5.15;;;10.10;99.90;;;;;;4990826;28;20118;-71
2022/11/23 01:23:22;;;;;;;10.82;5.05;;;10.20;99.90;;;;;;4988786;28;20030;-71
2022/11/23 01:25:48;;;;;;;13.10;5.20;;;10.20;99.90;;;;;;4983085;28;20022;-72
2022/11/23 01:28:14;;;;;;;10.48;4.72;;;10.10;99.90;;;;;;4975209;28;20046;-70
2022/11/23 01:30:40;;;;;;;10.43;4.57;;;10.10;99.90;;;;;;4972711;28;20081;-74
2022/11/23 01:33:05;;;;;;;8.93;4.63;;;10.10;99.90;;;;;;4990077;28;20018;-71
2022/11/23 01:35:31;;;;;;;11.40;4.85;;;10.10;99.90;;;;;;4975533;28;20577;-74
2022/11/23 01:37:57;;;;;;;9.60;4.70;;;10.10;99.90;;;;;;4979228;28;20045;-70
2022/11/23 01:40:23;;;;;;;7.07;3.75;;;10.00;99.90;;;;;;4992811;28;20038;-76
2022/11/23 01:42:52;;;;;;;10.38;4.10;;;10.00;99.90;;;;;;4993314;28;20030;-73
2022/11/23 01:45:54;;;;;;;12.73;7.30;;;10.00;99.90;;;;;;4982879;28;20085;-71
2022/11/23 01:48:35;;;;;;;14.35;7.53;;;10.00;99.90;;;;;;4993324;28;20023;-70
2022/11/23 01:51:05;;;;;;;16.08;7.55;;;10.00;99.90;;;;;;4992895;28;20058;-76
2022/11/23 01:53:33;;;;;;;19.58;8.07;;;10.00;99.90;;;;;;4992760;28;20033;-74
2022/11/23 01:56:03;;;;;;;13.85;6.75;;;9.90;99.90;;;;;;4981994;28;20493;-74
2022/11/23 01:58:33;;;;;;;15.07;6.75;;;9.90;99.90;;;;;;4991412;28;20030;-78
2022/11/23 02:00:59;;;;;;;12.25;5.03;;;9.80;99.90;;;;;;4986030;28;20114;-69
2022/11/23 02:03:28;;;;;;;11.75;5.50;;;9.80;99.90;;;;;;4984615;28;20101;-76
2022/11/23 02:05:59;;;;;;;12.77;5.93;;;9.80;99.90;;;;;;4981386;28;20049;-70
2022/11/23 02:08:26;;;;;;;10.85;4.93;;;9.80;99.90;;;;;;4992845;28;20443;-70
2022/11/23 02:10:53;;;;;;;11.55;5.97;;;9.70;99.90;;;;;;4977633;28;20097;-75
2022/11/23 02:13:18;;;;;;;13.98;5.43;;;9.70;99.90;;;;;;4991351;28;20477;-69
2022/11/23 02:15:52;;;;;;;12.32;6.40;;;9.70;99.90;;;;;;4980161;28;20102;-70
2022/11/23 02:18:22;;;;;;;;;;;9.70;99.90;;;;;;4988818;28;20034;-72
2022/11/23 02:20:49;;;;;;;15.00;7.22;;;9.60;99.90;;;;;;4987418;28;19921;-72
2022/11/23 02:23:33;;;;;;;17.85;6.35;;;9.60;99.90;;;;;;4984576;28;20051;-71
2022/11/23 02:26:04;;;;;;;12.40;6.38;;;9.50;99.90;;;;;;4973119;28;20492;-72
2022/11/23 02:28:34;;;;;;;;;;;9.50;99.90;;;;;;4991581;28;20042;-71
2022/11/23 02:31:01;;;;;;;11.90;5.75;;;9.40;99.90;;;;;;4991118;28;19910;-71
2022/11/23 02:33:27;;;;;;;12.82;5.43;;;9.40;99.90;;;;;;4991192;28;20032;-71
2022/11/23 02:35:56;;;;;;;11.52;4.93;;;9.40;99.90;;;;;;4976866;28;20037;-71
2022/11/23 02:38:25;;;;;;;13.68;6.35;;;9.50;99.90;;;;;;4976510;28;20042;-72
2022/11/23 02:40:51;;;;;;;18.88;5.95;;;9.40;99.90;;;;;;4992559;28;20030;-70
2022/11/23 02:43:20;;;;;;;12.70;5.57;;;9.40;99.90;;;;;;4977308;28;20031;-74
2022/11/23 02:45:56;;;;;;;12.88;4.80;;;9.40;99.90;;;;;;4983163;28;20038;-71
2022/11/23 02:48:24;;;;;;;13.32;5.72;;;9.40;99.90;;;;;;4988207;28;20023;-71
2022/11/23 02:50:50;;;;;;;14.63;6.18;;;9.40;99.90;;;;;;4989124;28;20027;-71
2022/11/23 02:53:15;;;;;;;16.98;7.38;;;9.30;99.90;;;;;;4987397;28;20040;-77
2022/11/23 02:55:41;;;;;;;11.38;5.82;;;9.30;99.90;;;;;;4993051;28;20018;-72
2022/11/23 02:58:07;;;;;;;11.82;5.32;;;9.40;99.90;;;;;;4994666;28;20511;-70
2022/11/23 03:00:34;;;;;;;7.47;3.67;;;9.40;99.90;;;;;;4994176;28;20034;-72
2022/11/23 03:03:01;;;;;;;13.40;4.05;;;9.40;99.90;;;;;;4975751;28;20022;-71
2022/11/23 03:05:27;;;;;;;7.63;3.53;;;9.40;99.90;;;;;;4988464;28;20465;-71
2022/11/23 03:07:53;;;;;;;6.88;3.22;;;9.40;99.90;;;;;;4982727;28;20027;-72
2022/11/23 03:10:20;;;;;;;8.05;3.90;;;9.50;99.90;;;;;;4995871;28;20057;-71
2022/11/23 03:12:53;;;;;;;6.88;3.47;;;9.50;99.90;;;;;;4992924;28;20022;-71
2022/11/23 03:15:19;;;;;;;7.05;3.38;;;9.50;99.90;;;;;;4995966;28;20038;-71
2022/11/23 03:17:46;;;;;;;6.28;3.15;;;9.50;99.90;;;;;;4977439;28;20108;-71
2022/11/23 03:20:13;;;;;;;5.82;2.90;;;9.50;99.90;;;;;;4984451;28;20042;-71
2022/11/23 03:22:42;;;;;;;6.30;2.80;;;9.50;99.90;;;;;;4981029;28;20074;-72
2022/11/23 03:25:09;;;;;;;3.90;2.42;;;9.60;99.90;;;;;;4978013;28;20038;-71
2022/11/23 03:27:38;;;;;;;5.47;2.83;;;9.70;99.90;;;;;;4986426;28;20402;-72
2022/11/23 03:30:06;;;;;;;7.90;2.97;;;9.70;99.90;;;;;;4994321;28;20449;-72
2022/11/23 03:32:34;;;;;;;6.70;3.30;;;9.80;99.90;;;;;;4990236;28;20027;-71
2022/11/23 03:35:01;;;;;;;4.72;2.42;;;9.90;99.90;;;;;;4994035;28;20589;-72
2022/11/23 03:37:28;;;;;;;5.95;2.72;;;9.90;99.90;;;;;;4974874;28;20026;-70
2022/11/23 03:39:54;;;;;;;4.40;2.30;;;10.00;99.90;;;;;;4988394;28;20042;-69
2022/11/23 03:42:58;;;;;;;4.97;2.35;;;10.00;99.90;;;;;;4915971;29;20062;-71
2022/11/23 03:45:24;;;;;;;4.80;2.72;;;10.10;99.90;;;;;;4900438;29;20032;-70
2022/11/23 03:47:50;;;;;;;6.15;3.08;;;10.20;99.90;;;;;;4915630;29;20255;-72
2022/11/23 03:50:17;;;;;;;5.60;2.97;;;10.20;99.90;;;;;;4916230;29;20035;-70
2022/11/23 03:52:43;;;;;;;5.95;2.50;;;10.20;99.90;;;;;;4915876;29;20021;-70
2022/11/23 03:55:11;;;;;;;4.53;2.30;;;10.20;99.90;;;;;;4900053;29;20513;-71
2022/11/23 03:57:36;;;;;;;6.65;3.00;;;10.30;99.90;;;;;;4915906;29;20056;-70
2022/11/23 04:00:05;;;;;;;5.18;2.60;;;10.30;99.90;;;;;;4908282;29;20182;-70
2022/11/23 04:02:39;;;;;;;5.05;2.50;;;10.30;99.90;;;;;;4916064;29;20116;-70
2022/11/23 04:05:09;;;;;;;6.60;2.85;;;10.30;99.90;;;;;;4915633;29;20028;-69
2022/11/23 04:08:01;;;;;;;7.03;2.83;;;10.30;99.90;;;;;;4892313;29;20047;-70
2022/11/23 04:10:27;;;;;;;4.15;2.92;;;10.40;99.90;;;;;;4899694;29;20028;-73
2022/11/23 04:13:22;;;;;;;3.95;2.40;;;10.40;99.90;;;;;;4855390;29;20036;-69
2022/11/23 04:15:48;;;;;;;4.78;2.60;;;10.40;99.90;;;;;;4915080;29;20020;-70
2022/11/23 04:18:14;;;;;;;5.43;2.05;;;10.40;99.90;;;;;;4900644;29;20051;-71
2022/11/23 04:20:40;;;;;;;6.47;2.88;;;10.40;99.90;;;;;;4899489;29;20040;-69
2022/11/23 04:23:06;;;;;;;6.00;2.83;;;10.40;99.90;;;;;;4915478;29;20055;-69
2022/11/23 04:25:32;;;;;;;9.43;2.72;;;10.40;99.90;;;;;;4899408;29;20031;-68
2022/11/23 04:27:58;;;;;;;6.03;3.13;;;10.40;99.90;;;;;;4899134;29;20142;-69
2022/11/23 04:30:25;;;;;;;3.83;2.53;;;10.40;99.90;;;;;;4899420;29;20040;-69
2022/11/23 04:32:55;;;;;;;4.82;2.13;;;10.40;99.90;;;;;;4899355;29;20488;-72
2022/11/23 04:35:21;;;;;;;4.95;2.75;;;10.40;99.90;;;;;;4898743;29;20517;-72
2022/11/23 04:37:49;;;;;;;5.40;2.80;;;10.50;99.90;;;;;;4898754;29;20036;-73
2022/11/23 04:40:16;;;;;;;9.50;3.92;;;10.50;99.90;;;;;;4901302;29;20398;-72
2022/11/23 04:42:50;;;;;;;9.00;3.15;;;10.50;99.90;;;;;;4897587;29;20127;-72
2022/11/23 04:45:16;;;;;;;5.20;2.70;;;10.50;99.90;;;;;;4899095;29;20131;-72
2022/11/23 04:47:42;;;;;;;4.60;2.60;;;10.50;99.90;;;;;;4898779;29;20419;-71
2022/11/23 04:50:14;;;;;;;6.32;3.28;;;10.40;99.90;;;;;;4957347;28;20100;-72
2022/11/23 04:52:44;;;;;;;6.45;2.53;;;10.40;99.90;;;;;;4991636;28;20037;-72
2022/11/23 04:55:16;;;;;;;7.97;2.53;;;10.40;99.90;;;;;;4992816;28;20065;-72
2022/11/23 04:57:49;;;;;;;5.85;3.20;;;10.30;99.90;;;;;;4992241;28;20045;-70
2022/11/23 05:00:16;;;;;;;6.07;2.88;;;10.30;99.90;;;;;;4985753;28;20482;-70
2022/11/23 05:02:43;;;;;;;6.03;2.67;;;10.30;99.90;;;;;;4973096;28;20583;-70
2022/11/23 05:05:18;;;;;;;6.10;2.88;;;10.20;99.90;;;;;;4979085;28;20048;-70
2022/11/23 05:07:44;;;;;;;5.82;2.67;;;10.10;99.90;;;;;;4992190;28;20469;-70
2022/11/23 05:10:09;;;;;;;4.95;2.13;;;10.10;99.90;;;;;;4990385;28;20466;-70
2022/11/23 05:12:36;;;;;;;8.32;2.97;;;10.10;99.90;;;;;;4971940;28;20295;-70
2022/11/23 05:15:04;;;;;;;8.50;3.65;;;10.10;99.90;;;;;;4987949;28;20035;-70
2022/11/23 05:17:34;;;;;;;16.70;4.97;;;10.00;99.90;;;;;;4982463;28;20030;-71
2022/11/23 05:20:00;;;;;;;12.85;4.75;;;10.00;99.90;;;;;;4984102;28;20501;-72
2022/11/23 05:22:29;;;;;;;11.27;5.07;;;10.00;99.90;;;;;;4978169;28;20030;-71
2022/11/23 05:24:55;;;;;;;33.15;13.73;;;10.10;99.90;;;;;;4993124;28;20085;-70
2022/11/23 05:27:23;;;;;;;21.25;9.60;;;10.10;99.90;;;;;;4988455;28;20043;-70
2022/11/23 05:29:49;;;;;;;8.63;4.18;;;10.00;99.90;;;;;;4979638;28;20061;-71
2022/11/23 05:32:16;;;;;;;6.30;3.13;;;9.90;99.90;;;;;;4982471;28;20129;-70
2022/11/23 05:34:41;;;;;;;8.52;3.90;;;9.90;99.90;;;;;;4997123;28;20130;-70
2022/11/23 05:37:09;;;;;;;7.20;3.08;;;9.80;99.90;;;;;;4972825;28;20391;-74
2022/11/23 05:39:41;;;;;;;11.10;3.17;;;9.90;99.90;;;;;;4977301;28;20507;-71
2022/11/23 05:42:08;;;;;;;14.77;5.30;;;9.80;99.90;;;;;;4976565;28;20084;-70
2022/11/23 05:44:40;;;;;;;16.35;6.15;;;9.80;99.90;;;;;;4972159;28;20134;-71
2022/11/23 05:47:12;;;;;;;52.30;25.25;;;9.90;99.90;;;;;;4974375;28;20041;-71
2022/11/23 05:49:38;;;;;;;73.13;38.38;;;9.90;99.90;;;;;;4991417;28;20034;-71
2022/11/23 05:52:05;;;;;;;34.83;19.60;;;9.90;99.90;;;;;;4986724;28;20022;-70
2022/11/23 05:54:32;;;;;;;46.05;28.20;;;9.90;99.90;;;;;;4987399;28;20077;-70
2022/11/23 05:57:03;;;;;;;20.85;10.50;;;10.00;99.90;;;;;;4986897;28;20023;-71
2022/11/23 05:59:38;;;;;;;10.00;4.75;;;10.00;99.90;;;;;;4988579;28;20046;-71
2022/11/23 06:02:04;;;;;;;9.32;3.70;;;10.00;99.90;;;;;;5003831;28;20027;-71
2022/11/23 06:04:34;;;;;;;10.13;4.45;;;9.90;99.90;;;;;;4988052;28;20569;-71
2022/11/23 06:07:00;;;;;;;10.93;4.65;;;9.80;99.90;;;;;;4981415;28;20023;-73
2022/11/23 06:09:29;;;;;;;10.43;4.88;;;9.70;99.90;;;;;;4990471;28;20052;-72
2022/11/23 06:12:02;;;;;;;11.10;4.63;;;9.50;99.90;;;;;;4991457;28;20393;-70
2022/11/23 06:14:29;;;;;;;10.27;4.60;;;9.50;99.90;;;;;;4992373;28;20373;-71
2022/11/23 06:16:55;;;;;;;14.75;7.15;;;9.30;99.90;;;;;;4983085;28;20400;-70
2022/11/23 06:19:40;;;;;;;13.55;7.95;;;9.20;99.90;;;;;;4988298;28;20053;-71
2022/11/23 06:22:06;;;;;;;15.80;7.88;;;9.00;99.90;;;;;;4983359;28;20034;-70
2022/11/23 06:24:36;;;;;;;15.27;8.25;;;8.90;99.90;;;;;;4988020;28;20122;-70
2022/11/23 06:27:26;;;;;;;17.40;8.13;;;9.00;99.90;;;;;;4985716;28;20073;-70
2022/11/23 06:29:52;;;;;;;15.55;8.98;;;8.90;99.90;;;;;;4990344;28;20489;-71
2022/11/23 06:32:19;;;;;;;13.02;7.90;;;8.80;99.90;;;;;;4991006;28;20029;-71
2022/11/23 06:34:46;;;;;;;17.40;9.05;;;8.70;99.90;;;;;;4991011;28;20066;-69
2022/11/23 06:37:12;;;;;;;15.05;9.07;;;8.70;99.90;;;;;;4987797;28;20099;-70
2022/11/23 06:39:39;;;;;;;18.70;10.57;;;8.60;99.90;;;;;;4966968;28;20046;-71
2022/11/23 06:42:06;;;;;;;17.65;9.88;;;8.60;99.90;;;;;;4976269;28;20519;-71
2022/11/23 06:44:32;;;;;;;18.13;11.93;;;8.60;99.90;;;;;;4981533;28;20050;-70
2022/11/23 06:46:58;;;;;;;20.58;11.60;;;8.60;99.90;;;;;;4977428;28;20115;-72
2022/11/23 06:49:25;;;;;;;18.35;11.18;;;8.60;99.90;;;;;;4974891;28;20384;-71
2022/11/23 06:52:08;;;;;;;22.80;12.75;;;8.60;99.90;;;;;;4986329;28;20033;-71
2022/11/23 06:54:34;;;;;;;20.95;12.95;;;8.60;99.90;;;;;;4990948;28;20026;-70
2022/11/23 06:57:01;;;;;;;17.90;11.43;;;8.60;99.90;;;;;;4976045;28;20093;-70
2022/11/23 06:59:30;;;;;;;20.88;11.82;;;8.60;99.90;;;;;;4978273;28;20039;-70
2022/11/23 07:01:56;;;;;;;19.45;12.23;;;8.60;99.90;;;;;;4990653;28;20073;-71
2022/11/23 07:04:22;;;;;;;18.80;10.98;;;8.60;99.90;;;;;;4973513;28;20026;-71
2022/11/23 07:06:50;;;;;;;17.83;10.55;;;8.60;99.90;;;;;;4995500;28;20027;-71
2022/11/23 07:09:26;;;;;;;19.90;11.57;;;8.70;99.90;;;;;;4990086;28;20022;-71
2022/11/23 07:12:30;;;;;;;20.70;12.55;;;8.70;99.90;;;;;;4938993;29;20083;-74
2022/11/23 07:14:58;;;;;;;19.50;12.02;;;8.60;99.90;;;;;;4934951;29;20042;-71
2022/11/23 07:17:24;;;;;;;20.38;12.93;;;8.70;99.90;;;;;;4935354;29;20122;-73
2022/11/23 07:19:51;;;;;;;23.13;13.13;;;8.70;99.90;;;;;;4931785;29;20040;-71
2022/11/23 07:22:17;;;;;;;18.17;10.85;;;8.60;99.90;;;;;;4916057;29;20466;-72
2022/11/23 07:24:42;;;;;;;19.65;13.02;;;8.60;99.90;;;;;;4934946;29;20039;-72
2022/11/23 07:27:08;;;;;;;19.60;12.00;;;8.60;99.90;;;;;;4950600;29;20055;-72
2022/11/23 07:29:34;;;;;;;20.92;12.93;;;8.60;99.90;;;;;;4951051;29;20086;-71
2022/11/23 07:32:00;;;;;;;22.45;13.65;;;8.50;99.90;;;;;;4934852;29;20130;-71
2022/11/23 07:34:29;;;;;;;19.45;12.57;;;8.50;99.90;;;;;;4935900;29;20133;-71
2022/11/23 07:36:55;;;;;;;20.48;14.57;;;8.60;99.90;;;;;;4938695;29;20027;-71
2022/11/23 07:39:21;;;;;;;21.42;13.75;;;8.60;99.90;;;;;;4938480;29;20051;-70
2022/11/23 07:41:51;;;;;;;20.48;12.73;;;8.60;99.90;;;;;;4936827;29;20334;-77
2022/11/23 07:44:25;;;;;;;19.23;11.55;;;8.50;99.90;;;;;;4995445;28;20038;-72
2022/11/23 07:46:54;;;;;;;22.23;11.50;;;8.50;99.90;;;;;;4994032;28;20039;-72
2022/11/23 07:49:19;;;;;;;21.42;13.82;;;8.50;99.90;;;;;;4992851;28;20088;-75
2022/11/23 07:51:45;;;;;;;20.45;11.75;;;8.50;99.90;;;;;;4994458;28;20062;-72
2022/11/23 07:54:11;;;;;;;18.23;11.95;;;8.60;99.90;;;;;;4980653;28;20733;-73
2022/11/23 07:56:37;;;;;;;22.48;12.25;;;8.50;99.90;;;;;;4994114;28;20106;-71
2022/11/23 07:59:03;;;;;;;19.33;12.80;;;8.50;99.90;;;;;;4994864;28;20042;-71
2022/11/23 08:01:30;;;;;;;17.67;11.75;;;8.50;99.90;;;;;;4995522;28;20080;-71
2022/11/23 08:03:56;;;;;;;17.77;11.20;;;8.60;99.90;;;;;;4994893;28;20014;-72
2022/11/23 08:06:22;;;;;;;20.17;11.38;;;8.70;99.90;;;;;;4994275;28;20034;-72
2022/11/23 08:08:49;;;;;;;18.25;12.18;;;8.70;99.90;;;;;;4994618;28;20372;-73
2022/11/23 08:11:17;;;;;;;17.45;11.55;;;8.70;99.90;;;;;;4994519;28;20026;-71
2022/11/23 08:13:43;;;;;;;20.17;11.32;;;8.60;99.90;;;;;;4990225;28;20030;-77
2022/11/23 08:16:09;;;;;;;21.55;12.25;;;8.60;99.90;;;;;;4981682;28;20497;-71
2022/11/23 08:18:35;;;;;;;24.90;14.40;;;8.60;99.90;;;;;;4985109;28;20029;-71
2022/11/23 08:21:01;;;;;;;18.77;11.20;;;8.50;99.90;;;;;;4994080;28;20085;-72
2022/11/23 08:23:27;;;;;;;17.77;10.35;;;8.60;99.90;;;;;;4992601;28;20118;-71
2022/11/23 08:25:53;;;;;;;17.10;10.82;;;8.60;99.90;;;;;;4984112;28;20113;-73
2022/11/23 08:28:19;;;;;;;17.48;10.55;;;8.60;99.90;;;;;;4994122;28;20046;-75
2022/11/23 08:30:46;;;;;;;18.15;10.55;;;8.60;99.90;;;;;;4987650;28;20022;-71
2022/11/23 08:33:12;;;;;;;17.30;8.95;;;8.60;99.90;;;;;;4994729;28;20096;-75
2022/11/23 08:35:40;;;;;;;17.27;10.40;;;8.70;99.90;;;;;;4985617;28;20039;-71
2022/11/23 08:38:07;;;;;;;15.80;9.52;;;8.60;99.90;;;;;;4980722;28;20046;-72
2022/11/23 08:40:34;;;;;;;15.30;10.55;;;8.60;99.90;;;;;;4987943;28;20500;-71
2022/11/23 08:43:00;;;;;;;18.10;11.38;;;8.70;99.90;;;;;;4993720;28;20125;-71
2022/11/23 08:45:27;;;;;;;17.48;10.73;;;8.60;99.90;;;;;;4993826;28;20022;-73
2022/11/23 08:47:54;;;;;;;17.85;10.80;;;8.70;99.90;;;;;;4993676;28;20015;-71
2022/11/23 08:50:21;;;;;;;16.52;11.10;;;8.80;99.90;;;;;;4993840;28;20033;-71
2022/11/23 08:52:47;;;;;;;15.98;9.20;;;8.80;99.90;;;;;;4990010;28;20018;-71
2022/11/23 08:55:13;;;;;;;13.88;8.85;;;8.80;99.90;;;;;;4993987;28;20088;-71
2022/11/23 08:57:39;;;;;;;15.05;9.50;;;8.70;99.90;;;;;;4993552;28;20350;-75
2022/11/23 09:00:05;;;;;;;13.55;8.32;;;8.80;99.90;;;;;;4993556;28;20046;-71
2022/11/23 09:02:31;;;;;;;12.00;7.15;;;8.80;99.90;;;;;;4990313;28;20018;-71
2022/11/23 09:04:57;;;;;;;10.30;5.97;;;8.80;99.90;;;;;;4992174;28;20045;-71
2022/11/23 09:07:23;;;;;;;9.70;5.85;;;8.80;99.90;;;;;;4992956;28;20018;-71
2022/11/23 09:09:49;;;;;;;7.70;5.32;;;8.80;99.90;;;;;;4992868;28;20559;-71
2022/11/23 09:12:15;;;;;;;9.23;5.40;;;8.90;99.90;;;;;;4993008;28;20030;-71
2022/11/23 09:14:41;;;;;;;9.88;5.90;;;9.00;99.90;;;;;;4987588;28;20461;-71
2022/11/23 09:17:06;;;;;;;10.43;5.88;;;9.00;99.90;;;;;;4993560;28;20030;-71
2022/11/23 09:19:34;;;;;;;13.73;5.80;;;9.00;99.90;;;;;;4993248;28;20461;-74
2022/11/23 09:22:00;;;;;;;9.52;5.85;;;9.00;99.90;;;;;;4993479;28;20033;-73
2022/11/23 09:24:26;;;;;;;6.13;3.80;;;9.10;99.90;;;;;;4993436;28;20042;-71
2022/11/23 09:26:53;;;;;;;6.55;4.22;;;9.10;99.90;;;;;;4992977;28;20057;-71
2022/11/23 09:29:19;;;;;;;6.93;4.40;;;9.20;99.90;;;;;;4993367;28;20026;-71
2022/11/23 09:31:44;;;;;;;10.45;5.97;;;9.20;99.90;;;;;;4993052;28;20089;-71
2022/11/23 09:34:13;;;;;;;7.78;4.30;;;9.20;99.90;;;;;;4982839;28;20477;-71
2022/11/23 09:36:39;;;;;;;11.43;5.68;;;9.30;99.90;;;;;;4992864;28;20061;-72
2022/11/23 09:39:05;;;;;;;9.48;4.82;;;9.40;99.90;;;;;;4993764;28;20034;-78
2022/11/23 09:41:43;;;;;;;7.63;4.85;;;9.30;99.90;;;;;;4993314;28;20573;-71
2022/11/23 09:44:23;;;;;;;8.85;5.47;;;9.30;99.90;;;;;;4984747;28;20035;-72
2022/11/23 09:47:12;;;;;;;10.43;5.78;;;9.50;99.90;;;;;;4986241;28;20535;-72
2022/11/23 09:49:48;;;;;;;11.85;6.22;;;9.70;99.90;;;;;;4990572;28;20114;-72
2022/11/23 09:52:18;;;;;;;8.02;4.78;;;9.70;99.90;;;;;;4993634;28;20018;-72
2022/11/23 09:54:47;;;;;;;7.30;4.35;;;9.70;99.90;;;;;;4982888;28;20042;-71
2022/11/23 09:57:18;;;;;;;5.70;3.85;;;9.80;99.90;;;;;;4989222;28;20057;-72
2022/11/23 10:00:08;;;;;;;4.95;3.00;;;9.70;99.90;;;;;;4992062;28;20137;-72
2022/11/23 10:02:39;;;;;;;5.55;3.80;;;9.70;99.90;;;;;;4985318;28;20408;-72
2022/11/23 10:05:09;;;;;;;6.63;3.00;;;9.80;99.90;;;;;;4991397;28;20432;-72
2022/11/23 10:07:44;;;;;;;7.80;4.20;;;9.80;99.90;;;;;;4990512;28;20396;-71
2022/11/23 10:10:31;;;;;;;5.35;3.60;;;9.80;99.90;;;;;;4992470;28;20041;-72
2022/11/23 10:13:23;;;;;;;8.85;5.15;;;9.80;99.90;;;;;;4992376;28;20018;-71
2022/11/23 10:16:13;;;;;;;8.77;4.75;;;10.00;99.90;;;;;;4932373;29;20042;-72
2022/11/23 10:18:53;;;;;;;9.18;3.83;;;9.80;99.90;;;;;;4932109;29;20091;-72
2022/11/23 10:21:47;;;;;;;5.47;3.25;;;9.80;99.90;;;;;;4931526;29;20122;-71
2022/11/23 10:24:20;;;;;;;6.43;4.07;;;9.60;99.90;;;;;;4931609;29;20151;-71
2022/11/23 10:26:48;;;;;;;4.60;2.90;;;9.50;99.90;;;;;;4931852;29;20550;-72
2022/11/23 10:29:30;;;;;;;5.53;2.83;;;9.20;99.90;;;;;;4931784;29;20059;-72
2022/11/23 10:31:57;;;;;;;5.50;2.90;;;9.10;99.90;;;;;;4915745;29;20255;-71
2022/11/23 10:34:32;;;;;;;5.95;3.95;;;9.00;99.90;;;;;;4932109;29;20099;-72
2022/11/23 10:36:58;;;;;;;7.05;3.80;;;8.90;99.90;;;;;;4916305;29;20043;-71
2022/11/23 10:39:25;;;;;;;6.03;3.38;;;8.90;99.90;;;;;;4931447;29;20042;-72
2022/11/23 10:41:57;;;;;;;7.53;3.88;;;8.90;99.90;;;;;;4931071;29;20047;-79
2022/11/23 10:44:23;;;;;;;4.07;2.42;;;8.90;99.90;;;;;;4931590;29;20028;-72
2022/11/23 10:46:48;;;;;;;4.13;2.03;;;8.90;99.90;;;;;;4931699;29;20131;-72
2022/11/23 10:49:28;;;;;;;7.50;2.38;;;8.80;99.90;;;;;;4931288;29;20541;-73
2022/11/23 10:52:07;;;;;;;4.57;3.08;;;8.80;99.90;;;;;;4943650;28;20381;-72
2022/11/23 10:54:37;;;;;;;6.82;3.22;;;8.90;99.90;;;;;;4991991;28;20064;-72
2022/11/23 10:57:26;;;;;;;6.47;4.10;;;9.00;99.90;;;;;;4987561;28;20105;-71
2022/11/23 11:00:01;;;;;;;5.15;2.65;;;9.00;99.90;;;;;;4986821;28;20464;-72
2022/11/23 11:02:27;;;;;;;8.95;3.47;;;9.10;99.90;;;;;;4975868;28;20105;-72
2022/11/23 11:05:31;;;;;;;7.10;4.15;;;9.10;99.90;;;;;;4982342;28;20027;-73
2022/11/23 11:07:58;;;;;;;;;;;9.20;99.90;;;;;;4978528;28;20034;-72
2022/11/23 11:10:35;;;;;;;5.22;2.53;;;9.20;99.90;;;;;;4995756;28;19912;-72
2022/11/23 11:13:02;;;;;;;12.57;4.95;;;9.20;99.90;;;;;;4995604;28;20030;-73
2022/11/23 11:15:28;;;;;;;7.22;3.35;;;9.20;99.90;;;;;;4994972;28;20391;-72
2022/11/23 11:17:58;;;;;;;6.80;3.30;;;9.20;99.90;;;;;;4990594;28;20068;-72
2022/11/23 11:20:27;;;;;;;3.92;2.13;;;9.10;99.90;;;;;;4988401;28;20128;-72
2022/11/23 11:22:54;;;;;;;5.75;2.85;;;9.00;99.90;;;;;;4995802;28;20139;-72
2022/11/23 11:25:36;;;;;;;8.77;3.95;;;8.90;99.90;;;;;;4994999;28;20118;-72
2022/11/23 11:28:05;;;;;;;6.90;3.60;;;8.90;99.90;;;;;;4985756;28;20121;-72
2022/11/23 11:30:44;;;;;;;6.85;4.18;;;8.90;99.90;;;;;;4993651;28;20030;-73
2022/11/23 11:33:17;;;;;;;7.75;3.50;;;8.90;99.90;;;;;;4995219;28;20022;-73
2022/11/23 11:35:47;;;;;;;10.93;4.75;;;8.90;99.90;;;;;;4994963;28;20035;-72
2022/11/23 11:38:36;;;;;;;9.48;4.38;;;8.90;99.90;;;;;;4994681;28;20026;-72
2022/11/23 11:41:09;;;;;;;5.85;3.20;;;8.90;99.90;;;;;;4992691;28;20042;-72
2022/11/23 11:43:46;;;;;;;5.68;3.05;;;8.70;99.90;;;;;;4991812;28;20027;-72
2022/11/23 11:46:21;;;;;;;6.28;3.42;;;8.80;99.90;;;;;;4995090;28;20074;-72
2022/11/23 11:48:53;;;;;;;8.18;3.30;;;8.80;99.90;;;;;;4994959;28;20053;-72
2022/11/23 11:51:26;;;;;;;11.00;4.17;;;8.50;99.90;;;;;;4994987;28;20105;-73
2022/11/23 11:54:23;;;;;;;4.85;2.70;;;8.50;99.90;;;;;;4994631;28;20045;-73
2022/11/23 11:56:52;;;;;;;7.22;3.60;;;8.50;99.90;;;;;;4994630;28;20030;-73
2022/11/23 11:59:28;;;;;;;5.00;3.00;;;8.50;99.90;;;;;;4992329;28;20034;-73
2022/11/23 12:02:22;;;;;;;3.80;2.90;;;8.50;99.90;;;;;;4993729;28;20038;-72
2022/11/23 12:04:53;;;;;;;13.88;6.00;;;8.40;99.90;;;;;;4992707;28;20161;-72
2022/11/23 12:07:33;;;;;;;3.90;2.50;;;8.40;99.90;;;;;;4994341;28;20094;-72
2022/11/23 12:10:14;;;;;;;7.07;3.65;;;8.30;99.90;;;;;;4993492;28;20030;-72
2022/11/23 12:12:40;;;;;;;5.55;2.40;;;8.30;99.90;;;;;;4984151;28;20081;-72
2022/11/23 12:15:15;;;;;;;4.50;3.00;;;8.30;99.90;;;;;;4989384;28;20086;-73
2022/11/23 12:18:23;;;;;;;7.80;3.83;;;8.30;99.90;;;;;;4987638;28;20030;-77
2022/11/23 12:20:55;;;;;;;6.18;3.22;;;8.40;99.90;;;;;;4945444;28;20095;-78
2022/11/23 12:23:56;;;;;;;5.60;2.78;;;8.30;99.90;;;;;;4945208;29;20498;-72
2022/11/23 12:26:42;;;;;;;5.57;3.30;;;8.30;99.90;;;;;;4944379;29;20098;-71
2022/11/23 12:29:32;;;;;;;7.82;4.05;;;8.30;99.90;;;;;;4945264;29;20058;-72
2022/11/23 12:32:19;;;;;;;6.13;3.65;;;8.20;99.90;;;;;;4953089;29;20035;-70
2022/11/23 12:35:07;;;;;;;9.45;4.38;;;8.10;99.90;;;;;;4953198;28;20045;-71
2022/11/23 12:37:51;;;;;;;5.28;3.30;;;8.00;99.90;;;;;;4952523;29;20042;-72
2022/11/23 12:40:34;;;;;;;5.82;3.70;;;8.00;99.90;;;;;;4953208;29;20066;-72
2022/11/23 12:43:07;;;;;;;6.47;3.67;;;7.80;99.90;;;;;;4950995;29;20058;-72
2022/11/23 12:46:05;;;;;;;7.20;3.97;;;7.80;99.90;;;;;;4953848;29;20048;-73
2022/11/23 12:49:13;;;;;;;7.85;3.80;;;7.80;99.90;;;;;;4900755;29;20115;-73
2022/11/23 12:51:54;;;;;;;6.10;3.40;;;7.90;99.90;;;;;;4880363;29;20112;-74
2022/11/23 12:54:30;;;;;;;12.82;5.13;;;7.80;99.90;;;;;;4899851;29;20039;-71
2022/11/23 12:57:04;;;;;;;6.13;3.17;;;7.90;99.90;;;;;;4934229;29;20605;-73
2022/11/23 12:59:40;;;;;;;5.88;3.13;;;7.80;99.90;;;;;;4933376;29;20054;-73
2022/11/23 13:02:15;;;;;;;8.10;4.25;;;7.70;99.90;;;;;;4933151;29;20055;-72
2022/11/23 13:04:40;;;;;;;6.38;3.72;;;7.80;99.90;;;;;;4932842;28;20526;-72
2022/11/23 13:07:36;;;;;;;7.43;3.85;;;7.60;99.90;;;;;;4933091;29;20031;-74